createdAt,value
2023-02-22T00:08:48.432Z,18.02
2023-02-22T00:18:52.173Z,18.83
2023-02-22T00:28:54.745Z,16.45
2023-02-22T00:38:58.049Z,18.25
2023-02-22T00:48:59.959Z,19.48
2023-02-22T00:59:03.432Z,16.40
2023-02-22T01:09:05.413Z,17.30
2023-02-22T01:19:08.753Z,16.90
2023-02-22T01:29:13.696Z,18.50
2023-02-22T01:39:17.470Z,17.52
2023-02-22T01:49:19.549Z,17.65
2023-02-22T01:59:23.933Z,20.10
2023-02-22T02:09:30.812Z,16.92
2023-02-22T02:19:43.665Z,17.35
2023-02-22T02:30:20.413Z,19.35
2023-02-22T02:40:30.334Z,21.25
2023-02-22T02:50:36.718Z,19.93
2023-02-22T03:00:41.968Z,22.70
2023-02-22T03:10:52.007Z,22.90
2023-02-22T03:21:01.079Z,24.08
2023-02-22T03:31:07.753Z,21.65
2023-02-22T03:41:14.799Z,22.80
2023-02-22T03:51:17.656Z,23.02
2023-02-22T04:01:21.189Z,23.52
2023-02-22T04:11:23.509Z,26.30
2023-02-22T04:21:26.870Z,24.35
2023-02-22T04:31:28.912Z,29.52
2023-02-22T04:41:32.275Z,26.98
2023-02-22T04:51:34.248Z,31.42
2023-02-22T05:01:38.257Z,33.53
2023-02-22T05:11:40.390Z,32.30
2023-02-22T05:21:43.720Z,32.42
2023-02-22T05:31:45.755Z,29.73
2023-02-22T05:41:49.119Z,31.35
2023-02-22T05:51:51.134Z,30.65
2023-02-22T06:01:54.556Z,30.95
2023-02-22T06:11:56.495Z,29.40
2023-02-22T06:21:59.799Z,31.33
2023-02-22T06:32:01.881Z,28.23
2023-02-22T06:42:05.741Z,29.27
2023-02-22T06:52:09.074Z,26.45
2023-02-22T07:02:13.051Z,25.55
2023-02-22T07:12:15.162Z,23.52
2023-02-22T07:22:18.572Z,25.77
2023-02-22T07:32:20.565Z,23.67
2023-02-22T07:42:23.995Z,22.05
2023-02-22T07:52:25.967Z,21.45
2023-02-22T08:02:30.579Z,19.85
2023-02-22T08:12:32.737Z,19.33
2023-02-22T08:22:36.133Z,18.90
2023-02-22T08:32:38.295Z,16.33
2023-02-22T08:42:41.655Z,17.10
2023-02-22T08:52:43.631Z,14.13
2023-02-22T09:02:46.986Z,13.45
2023-02-22T09:12:48.945Z,11.77
2023-02-22T09:22:52.681Z,9.30
2023-02-22T09:32:58.078Z,7.63
2023-02-22T09:43:20.262Z,7.50
2023-02-22T09:53:26.487Z,7.15
2023-02-22T10:03:49.027Z,7.70
2023-02-22T10:14:01.196Z,6.60
2023-02-22T10:24:13.324Z,6.53
2023-02-22T10:34:17.345Z,8.65
2023-02-22T10:44:20.864Z,10.48
2023-02-22T10:54:28.670Z,13.40
2023-02-22T11:04:45.636Z,11.35
2023-02-22T11:14:48.312Z,11.07
2023-02-22T11:24:58.107Z,13.50
2023-02-22T11:35:30.919Z,11.73
2023-02-22T11:45:34.262Z,10.60
2023-02-22T11:55:43.662Z,9.98
2023-02-22T12:06:04.157Z,10.83
2023-02-22T12:16:16.822Z,10.43
2023-02-22T12:26:26.891Z,10.50
2023-02-22T12:36:35.984Z,8.27
2023-02-22T12:46:42.281Z,10.77
2023-02-22T13:19:01.020Z,9.88
2023-02-22T13:29:09.375Z,9.57
2023-02-22T13:39:39.182Z,8.93
2023-02-22T13:49:57.717Z,9.73
2023-02-22T14:00:38.753Z,9.63
2023-02-22T14:10:50.511Z,10.25
2023-02-22T14:21:06.965Z,9.35
2023-02-22T14:31:13.887Z,7.57
2023-02-22T14:41:23.893Z,8.45
2023-02-22T14:51:29.706Z,8.15
2023-02-22T15:12:12.998Z,10.00
2023-02-22T15:22:22.737Z,10.75
2023-02-22T15:32:31.862Z,9.60
2023-02-22T15:42:43.949Z,16.90
2023-02-22T15:52:53.146Z,11.48
2023-02-22T16:02:57.988Z,11.43
2023-02-22T16:13:14.468Z,10.45
2023-02-22T16:23:27.592Z,9.40
2023-02-22T16:33:29.603Z,10.85
2023-02-22T16:43:33.839Z,8.10
2023-02-22T16:53:37.554Z,8.25
2023-02-22T17:03:41.118Z,9.10
2023-02-22T17:13:43.547Z,9.57
2023-02-22T17:23:47.394Z,8.48
2023-02-22T17:33:49.612Z,8.60
2023-02-22T17:43:53.009Z,8.90
2023-02-22T17:53:55.132Z,7.75
2023-02-22T18:04:02.965Z,8.73
2023-02-22T18:14:27.292Z,8.00
2023-02-22T18:24:33.499Z,7.05
2023-02-22T18:34:35.447Z,7.90
2023-02-22T18:44:39.113Z,7.57
2023-02-22T18:54:41.876Z,8.82
2023-02-22T19:04:45.201Z,16.90
2023-02-22T19:14:47.174Z,11.70
2023-02-22T19:24:53.776Z,11.90
2023-02-22T19:35:12.217Z,12.10
2023-02-22T19:45:16.063Z,19.33
2023-02-22T20:40:17.786Z,11.70
2023-02-22T21:23:23.594Z,9.00
2023-02-22T21:33:25.569Z,8.43
2023-02-22T21:43:28.934Z,6.82
2023-02-22T21:54:09.670Z,7.30
2023-02-22T22:04:13.847Z,6.63
2023-02-22T22:14:17.171Z,6.18
2023-02-22T22:24:22.107Z,6.30
2023-02-22T22:34:29.354Z,6.85
2023-02-22T22:44:33.143Z,6.57
2023-02-22T22:54:35.220Z,6.45
2023-02-22T23:04:38.632Z,5.97
2023-02-22T23:14:42.538Z,5.90
2023-02-22T23:24:45.900Z,4.82
2023-02-22T23:34:47.914Z,5.13
2023-02-22T23:44:52.450Z,5.65
2023-02-22T23:54:54.746Z,6.50
